Terminal Aerodrome Forecast
Issued by NWS Melbourne, FL

Home | Current Version | Previous Version | Text Only | Print | Product List | Glossary On
Versions: 1 2 3 4 5 6 7 8 9 10 11 12 13 14 15 16 17 18 19 20 21
000
FTUS42 KMLB 080520
TAFVRB
TAF
KVRB 080520Z 0806/0906 VRB02KT P6SM FEW100 SCT250
     FM081400 12009KT P6SM SCT030 SCT250
     FM081800 11012KT P6SM SCT040
     FM090000 11004KT P6SM FEW100 SCT250=

USA.gov is the U.S. government's official web portal to all federal, state and local government web resources and services.